Time;durP1;ratioP1;P1;durP2;ratioP2;P2;SDS_P1;SDS_P2;PMS_P1;PMS_P2;Temp;Humidity;BMP_temperature;BMP_pressure;BME280_temperature;BME280_humidity;BME280_pressure;Samples;Min_cycle;Max_cycle;Signal;HPM_P1;HPM_P2
2022/08/17 00:00:24;;;;;;;5.37;1.70;;;19.90;97.30;;;;;;5076198;28;20432;-89
2022/08/17 00:03:11;;;;;;;2.50;1.53;;;19.90;97.30;;;;;;5076108;28;20222;-87
2022/08/17 00:05:58;;;;;;;1.80;1.57;;;19.80;97.30;;;;;;5076142;28;20451;-88
2022/08/17 00:08:31;;;;;;;1.90;1.83;;;19.80;97.30;;;;;;5075915;28;20448;-88
2022/08/17 00:10:58;;;;;;;2.17;1.70;;;19.80;97.30;;;;;;5076007;28;20412;-88
2022/08/17 00:13:31;;;;;;;2.30;1.40;;;19.80;97.30;;;;;;5075955;28;20420;-88
2022/08/17 00:16:08;;;;;;;2.07;1.87;;;19.80;97.30;;;;;;5093955;28;20919;-88
2022/08/17 00:18:34;;;;;;;3.70;1.83;;;19.80;97.30;;;;;;5075403;28;20412;-88
2022/08/17 00:21:01;;;;;;;1.97;1.60;;;19.80;97.30;;;;;;5075598;28;20926;-88
2022/08/17 00:23:27;;;;;;;3.07;2.00;;;19.70;97.30;;;;;;5075658;28;20412;-87
2022/08/17 00:25:53;;;;;;;2.40;1.97;;;19.70;97.30;;;;;;5075686;28;20409;-87
2022/08/17 00:28:19;;;;;;;1.53;1.43;;;19.60;97.30;;;;;;5075623;28;20440;-87
2022/08/17 00:30:47;;;;;;;8.93;4.40;;;19.60;97.30;;;;;;5075434;28;20221;-87
2022/08/17 00:33:20;;;;;;;3.00;1.97;;;19.60;97.30;;;;;;5075542;28;20424;-87
2022/08/17 00:35:48;;;;;;;2.10;1.60;;;19.60;97.30;;;;;;5075504;28;20905;-87
2022/08/17 00:38:14;;;;;;;2.20;2.00;;;19.50;97.30;;;;;;5074870;28;20460;-86
2022/08/17 00:41:04;;;;;;;4.43;1.90;;;19.50;97.30;;;;;;5075082;28;20805;-87
2022/08/17 00:43:34;;;;;;;3.10;2.50;;;19.50;97.30;;;;;;5074822;28;20428;-86
2022/08/17 00:46:03;;;;;;;2.10;1.97;;;19.50;97.30;;;;;;5075199;28;20420;-86
2022/08/17 00:48:31;;;;;;;2.00;1.50;;;19.50;97.30;;;;;;5075078;28;20443;-86
2022/08/17 00:51:22;;;;;;;3.90;1.83;;;19.50;97.30;;;;;;5075329;28;20901;-86
2022/08/17 00:54:01;;;;;;;4.53;2.10;;;19.40;97.30;;;;;;5075352;28;20409;-86
2022/08/17 00:56:33;;;;;;;1.97;1.70;;;19.40;97.30;;;;;;5074959;28;20448;-86
2022/08/17 00:59:01;;;;;;;2.40;2.23;;;19.40;97.30;;;;;;5075273;28;20945;-86
2022/08/17 01:01:27;;;;;;;2.03;1.73;;;19.30;97.30;;;;;;5093277;28;20400;-86
2022/08/17 01:03:54;;;;;;;3.33;1.57;;;19.30;97.30;;;;;;5100631;22;20481;-82
2022/08/17 01:06:21;;;;;;;3.87;2.63;;;19.30;97.30;;;;;;5072046;28;20418;-81
2022/08/17 01:08:50;;;;;;;7.13;2.30;;;19.30;97.30;;;;;;5055008;28;21046;-82
2022/08/17 01:11:16;;;;;;;2.67;2.17;;;19.30;97.30;;;;;;5071612;28;20935;-81
2022/08/17 01:13:42;;;;;;;2.70;2.50;;;19.30;97.30;;;;;;5072438;28;20708;-81
2022/08/17 01:16:24;;;;;;;2.23;2.10;;;19.30;97.30;;;;;;5071693;28;20176;-81
2022/08/17 01:18:55;;;;;;;1.97;1.83;;;19.20;97.30;;;;;;5071972;28;20470;-81
2022/08/17 01:21:42;;;;;;;1.80;1.70;;;19.20;97.30;;;;;;5071607;28;20414;-82
2022/08/17 01:24:08;;;;;;;2.27;1.47;;;19.20;97.30;;;;;;5071937;28;20418;-82
2022/08/17 01:26:35;;;;;;;3.67;2.37;;;19.20;97.30;;;;;;5071621;28;20426;-82
2022/08/17 01:29:03;;;;;;;6.37;3.27;;;19.20;97.30;;;;;;5071907;28;20433;-81
2022/08/17 01:31:36;;;;;;;3.70;2.20;;;19.20;97.30;;;;;;5076416;28;20416;-81
2022/08/17 01:34:06;;;;;;;5.53;1.70;;;19.20;97.30;;;;;;5060551;28;20909;-81
2022/08/17 01:36:32;;;;;;;2.50;1.83;;;19.20;97.30;;;;;;5076458;28;20469;-82
2022/08/17 01:38:58;;;;;;;3.80;2.90;;;19.10;97.30;;;;;;5074164;28;20774;-82
2022/08/17 01:41:25;;;;;;;3.30;2.37;;;19.10;97.30;;;;;;5057953;28;20229;-82
2022/08/17 01:44:00;;;;;;;2.83;1.43;;;19.10;97.30;;;;;;5073896;28;20516;-82
2022/08/17 01:46:30;;;;;;;1.73;1.57;;;19.10;97.30;;;;;;5075677;28;20402;-80
2022/08/17 01:48:56;;;;;;;1.97;1.70;;;19.10;97.30;;;;;;5075216;28;20509;-81
2022/08/17 01:51:25;;;;;;;2.33;1.73;;;19.00;97.30;;;;;;5074867;28;20504;-81
2022/08/17 01:53:56;;;;;;;4.40;2.07;;;19.00;97.30;;;;;;5074695;28;20794;-80
2022/08/17 01:56:24;;;;;;;2.57;2.00;;;18.90;97.30;;;;;;5075076;28;20417;-81
2022/08/17 01:58:51;;;;;;;3.13;2.73;;;19.00;97.30;;;;;;5060054;28;20871;-82
2022/08/17 02:01:19;;;;;;;1.83;1.73;;;19.00;97.30;;;;;;5075229;28;20464;-81
2022/08/17 02:03:45;;;;;;;3.90;2.20;;;19.00;97.30;;;;;;5074794;28;20814;-81
2022/08/17 02:06:11;;;;;;;2.33;1.60;;;19.00;97.30;;;;;;5067621;28;20415;-81
2022/08/17 02:08:37;;;;;;;1.93;1.63;;;18.90;97.30;;;;;;5036937;28;20200;-81
2022/08/17 02:11:06;;;;;;;4.00;2.47;;;18.90;97.30;;;;;;5037871;28;20407;-82
2022/08/17 02:13:32;;;;;;;3.93;3.73;;;18.90;97.30;;;;;;5038405;28;20173;-82
2022/08/17 02:15:59;;;;;;;3.03;1.67;;;18.90;97.30;;;;;;5039185;28;20412;-82
2022/08/17 02:18:25;;;;;;;4.80;2.43;;;18.80;97.30;;;;;;5038514;28;20463;-80
2022/08/17 02:20:52;;;;;;;2.37;1.30;;;18.80;97.30;;;;;;5040070;28;20842;-82
2022/08/17 02:23:21;;;;;;;6.63;2.23;;;18.80;97.30;;;;;;5039518;28;20410;-81
2022/08/17 02:25:47;;;;;;;4.27;3.43;;;18.70;97.30;;;;;;5038668;28;20414;-81
2022/08/17 02:28:14;;;;;;;2.73;1.67;;;18.70;97.30;;;;;;5038407;28;20437;-82
2022/08/17 02:30:42;;;;;;;1.67;1.57;;;18.70;97.30;;;;;;5038228;28;20482;-80
2022/08/17 02:33:08;;;;;;;4.10;2.60;;;18.70;97.30;;;;;;5038455;28;20407;-82
2022/08/17 02:35:36;;;;;;;4.53;2.30;;;18.70;97.30;;;;;;5030888;28;21046;-80
2022/08/17 02:38:03;;;;;;;2.13;1.97;;;18.70;97.30;;;;;;5037825;28;20208;-81
2022/08/17 02:40:29;;;;;;;7.43;2.90;;;18.70;97.30;;;;;;5036311;28;20435;-80
2022/08/17 02:42:55;;;;;;;7.53;2.03;;;18.70;97.30;;;;;;5034959;28;20470;-81
2022/08/17 02:45:23;;;;;;;3.03;2.63;;;18.60;97.30;;;;;;5036539;28;20242;-82
2022/08/17 02:47:49;;;;;;;4.00;2.93;;;18.60;97.30;;;;;;5036931;28;20657;-82
2022/08/17 02:50:17;;;;;;;6.17;2.63;;;18.60;97.30;;;;;;5037410;28;20447;-81
2022/08/17 02:52:44;;;;;;;1.70;1.47;;;18.60;97.30;;;;;;5038031;28;20188;-81
2022/08/17 02:55:17;;;;;;;1.50;1.40;;;18.50;97.30;;;;;;5037211;28;20434;-82
2022/08/17 02:57:43;;;;;;;2.90;2.30;;;18.50;97.30;;;;;;5036270;28;20455;-82
2022/08/17 03:00:13;;;;;;;2.23;2.03;;;18.50;97.30;;;;;;5036509;28;20439;-82
2022/08/17 03:02:40;;;;;;;2.93;2.20;;;18.50;97.30;;;;;;5037150;28;20502;-82
2022/08/17 03:05:11;;;;;;;3.03;2.07;;;18.40;97.30;;;;;;5052916;28;20458;-82
2022/08/17 03:07:37;;;;;;;3.13;1.80;;;18.40;97.30;;;;;;5057057;28;20425;-82
2022/08/17 03:10:04;;;;;;;4.10;2.23;;;18.40;97.30;;;;;;5076512;28;20445;-82
2022/08/17 03:12:36;;;;;;;2.70;2.33;;;18.40;97.30;;;;;;5076217;28;20910;-82
2022/08/17 03:15:15;;;;;;;2.87;2.43;;;18.40;97.30;;;;;;5076689;28;20439;-82
2022/08/17 03:17:41;;;;;;;4.43;1.77;;;18.40;97.30;;;;;;5077073;28;20461;-82
2022/08/17 03:20:07;;;;;;;2.73;2.37;;;18.30;97.30;;;;;;5075687;28;20440;-83
2022/08/17 03:22:41;;;;;;;1.40;1.33;;;18.40;97.30;;;;;;5075321;28;20175;-82
2022/08/17 03:25:08;;;;;;;3.23;1.90;;;18.40;97.30;;;;;;5091985;28;20410;-82
2022/08/17 03:27:35;;;;;;;4.70;2.50;;;18.30;97.30;;;;;;5077542;28;20426;-82
2022/08/17 03:30:03;;;;;;;6.73;2.17;;;18.30;97.30;;;;;;5078696;28;20446;-82
2022/08/17 03:32:29;;;;;;;2.20;1.70;;;18.40;97.30;;;;;;5079019;28;20504;-81
2022/08/17 03:34:59;;;;;;;2.70;2.13;;;18.40;97.30;;;;;;5084289;28;20973;-83
2022/08/17 03:37:25;;;;;;;2.27;2.10;;;18.40;97.30;;;;;;5054490;28;20685;-83
2022/08/17 03:39:53;;;;;;;3.80;2.00;;;18.40;97.30;;;;;;5054081;28;20469;-83
2022/08/17 03:42:22;;;;;;;2.80;2.17;;;18.40;97.30;;;;;;5056858;28;20418;-81
2022/08/17 03:44:49;;;;;;;3.20;2.83;;;18.40;97.30;;;;;;5040426;28;20550;-82
2022/08/17 03:58:11;;;;;;;2.97;2.07;;;18.40;97.30;;;;;;5060459;28;20545;-82
2022/08/17 04:00:38;;;;;;;3.60;1.90;;;18.30;97.30;;;;;;5055745;28;20462;-82
2022/08/17 04:03:03;;;;;;;3.63;2.57;;;18.30;97.30;;;;;;5054605;28;20255;-81
2022/08/17 04:05:29;;;;;;;3.77;1.93;;;18.30;97.30;;;;;;5058124;28;20486;-82
2022/08/17 04:07:55;;;;;;;2.90;2.20;;;18.30;97.30;;;;;;5050899;28;20195;-82
2022/08/17 04:10:20;;;;;;;2.63;1.80;;;18.30;97.30;;;;;;5040131;28;20199;-81
2022/08/17 04:12:53;;;;;;;3.60;2.27;;;18.30;97.30;;;;;;5047589;28;20464;-82
2022/08/17 04:15:20;;;;;;;5.07;2.20;;;18.40;97.30;;;;;;5041458;28;20206;-83
2022/08/17 04:17:46;;;;;;;3.03;2.60;;;18.40;97.30;;;;;;5072752;28;20507;-77
2022/08/17 04:20:13;;;;;;;2.90;1.93;;;18.40;97.30;;;;;;5054143;28;20437;-78
2022/08/17 04:22:39;;;;;;;2.77;2.43;;;18.40;97.30;;;;;;5070828;28;20504;-76
2022/08/17 04:25:12;;;;;;;4.23;2.40;;;18.40;97.30;;;;;;5069102;28;20520;-77
2022/08/17 04:27:38;;;;;;;23.50;2.57;;;18.40;97.30;;;;;;5042377;28;20277;-77
2022/08/17 04:30:06;;;;;;;2.10;1.63;;;18.40;97.30;;;;;;5045113;28;20453;-77
2022/08/17 04:32:32;;;;;;;3.67;1.80;;;18.50;97.30;;;;;;5058018;28;20181;-77
2022/08/17 04:34:58;;;;;;;1.97;1.67;;;18.50;97.30;;;;;;5041649;28;20422;-77
2022/08/17 04:37:23;;;;;;;3.23;2.03;;;18.50;97.30;;;;;;5051663;28;20532;-78
2022/08/17 04:42:05;;;;;;;3.20;2.90;;;18.60;97.30;;;;;;5037132;28;20700;-77
2022/08/17 04:42:34;;;;;;;2.50;2.10;;;18.60;97.30;;;;;;5051629;28;20222;-77
2022/08/17 04:45:02;;;;;;;3.43;1.90;;;18.60;97.30;;;;;;5033184;28;20513;-76
2022/08/17 04:47:28;;;;;;;3.40;3.20;;;18.70;97.30;;;;;;5033496;28;20672;-76
2022/08/17 04:49:53;;;;;;;1.53;1.53;;;18.70;97.30;;;;;;5038332;28;20457;-77
2022/08/17 04:52:19;;;;;;;5.30;3.17;;;18.70;97.30;;;;;;5052474;28;20180;-77
2022/08/17 04:54:45;;;;;;;2.13;1.50;;;18.80;97.30;;;;;;5065802;28;20186;-77
2022/08/17 04:57:10;;;;;;;3.93;2.60;;;18.80;97.30;;;;;;5070888;28;20210;-76
2022/08/17 04:59:36;;;;;;;2.27;2.10;;;18.80;97.30;;;;;;5069868;28;20202;-77
2022/08/17 05:02:01;;;;;;;3.57;2.53;;;18.90;97.30;;;;;;5069594;28;20179;-77
2022/08/17 05:04:27;;;;;;;2.80;2.10;;;18.90;97.30;;;;;;5065374;28;20725;-77
2022/08/17 05:06:55;;;;;;;3.47;2.03;;;18.90;97.30;;;;;;5044926;28;20222;-77
2022/08/17 05:09:21;;;;;;;9.97;4.33;;;18.90;97.30;;;;;;5071370;28;20437;-77
2022/08/17 05:11:47;;;;;;;3.77;2.37;;;19.00;97.30;;;;;;5071377;28;20426;-77
2022/08/17 05:14:13;;;;;;;1.70;1.60;;;19.00;97.30;;;;;;5069999;28;20512;-77
2022/08/17 05:16:40;;;;;;;2.90;1.60;;;19.00;97.30;;;;;;5086798;28;20552;-77
2022/08/17 05:19:05;;;;;;;3.63;2.23;;;19.10;97.30;;;;;;5071023;28;20191;-77
2022/08/17 05:21:31;;;;;;;2.23;1.83;;;19.10;97.30;;;;;;5069616;28;20424;-77
2022/08/17 05:23:59;;;;;;;6.10;2.87;;;19.10;97.30;;;;;;5069826;28;20175;-77
2022/08/17 05:26:26;;;;;;;1.97;1.63;;;19.20;97.30;;;;;;5069763;28;20573;-77
2022/08/17 05:28:52;;;;;;;3.60;2.00;;;19.20;97.30;;;;;;5073474;28;20465;-77
2022/08/17 05:31:18;;;;;;;2.67;2.17;;;19.30;97.30;;;;;;5069694;28;20504;-77
2022/08/17 05:33:44;;;;;;;5.00;2.50;;;19.30;97.30;;;;;;5075630;28;20497;-77
2022/08/17 05:36:11;;;;;;;3.97;2.30;;;19.30;97.30;;;;;;5071058;28;20409;-77
2022/08/17 05:38:37;;;;;;;5.23;2.67;;;19.40;97.30;;;;;;5052970;28;20298;-77
2022/08/17 05:41:06;;;;;;;4.97;2.80;;;19.40;97.30;;;;;;5069585;28;20438;-77
2022/08/17 05:43:37;;;;;;;2.70;1.60;;;19.50;97.30;;;;;;5069437;28;20258;-78
2022/08/17 05:46:20;;;;;;;5.50;2.53;;;19.50;97.30;;;;;;5069244;28;21021;-77
2022/08/17 05:49:00;;;;;;;3.17;2.00;;;19.60;97.30;;;;;;5086380;28;20433;-77
2022/08/17 05:51:51;;;;;;;6.33;3.47;;;19.60;97.30;;;;;;5069629;28;20519;-78
2022/08/17 05:54:20;;;;;;;2.33;1.73;;;19.70;97.30;;;;;;5069417;28;20394;-77
2022/08/17 05:57:14;;;;;;;3.33;2.20;;;19.80;97.30;;;;;;5069281;28;20456;-77
2022/08/17 05:59:47;;;;;;;3.10;1.97;;;19.80;97.30;;;;;;5065519;28;20449;-77
2022/08/17 06:02:31;;;;;;;4.20;3.30;;;19.90;97.30;;;;;;5069550;28;20452;-78
2022/08/17 06:05:39;;;;;;;3.90;2.03;;;20.00;97.30;;;;;;5069446;28;20485;-77
2022/08/17 06:08:32;;;;;;;2.47;2.30;;;20.00;97.30;;;;;;5031324;28;20403;-77
2022/08/17 06:11:05;;;;;;;3.90;2.93;;;20.10;97.30;;;;;;5029497;28;20411;-77
2022/08/17 06:13:39;;;;;;;2.33;2.13;;;20.10;97.30;;;;;;5013520;28;20625;-77
2022/08/17 06:16:25;;;;;;;2.57;1.80;;;20.20;97.30;;;;;;5023744;28;20425;-78
2022/08/17 06:19:04;;;;;;;4.87;2.40;;;20.20;97.30;;;;;;5016609;28;20443;-77
2022/08/17 06:21:37;;;;;;;5.10;2.20;;;20.30;97.30;;;;;;5016416;28;20481;-77
2022/08/17 06:24:26;;;;;;;2.90;2.67;;;20.30;97.30;;;;;;5016701;28;20396;-77
2022/08/17 06:26:54;;;;;;;4.20;2.60;;;20.40;97.30;;;;;;5032085;28;20983;-77
2022/08/17 06:29:40;;;;;;;4.00;3.10;;;20.40;97.30;;;;;;5016204;28;20470;-77
2022/08/17 06:32:09;;;;;;;3.07;1.90;;;20.50;97.30;;;;;;5033986;28;20395;-77
2022/08/17 06:34:37;;;;;;;3.17;2.87;;;20.60;97.30;;;;;;5016207;28;20411;-77
2022/08/17 06:37:08;;;;;;;5.27;2.87;;;20.60;97.30;;;;;;5016012;28;20455;-77
2022/08/17 06:40:02;;;;;;;1.67;1.57;;;20.70;97.30;;;;;;5033811;28;20954;-77
2022/08/17 06:42:50;;;;;;;2.70;1.93;;;20.70;97.30;;;;;;5016981;28;20407;-77
2022/08/17 06:45:22;;;;;;;9.40;2.27;;;20.80;97.30;;;;;;5022287;28;20408;-77
2022/08/17 06:47:58;;;;;;;2.90;2.37;;;20.90;97.30;;;;;;5015666;28;20522;-77
2022/08/17 06:50:39;;;;;;;2.33;1.60;;;20.90;97.30;;;;;;5015509;28;20418;-77
2022/08/17 06:53:25;;;;;;;3.50;2.23;;;21.00;97.30;;;;;;5033459;28;20777;-77
2022/08/17 06:56:00;;;;;;;3.00;2.13;;;21.10;97.30;;;;;;5015732;28;20461;-77
2022/08/17 06:58:30;;;;;;;3.53;2.20;;;21.10;97.30;;;;;;5032465;28;21018;-77
2022/08/17 07:00:59;;;;;;;8.20;2.40;;;21.20;97.30;;;;;;5015835;28;20426;-78
2022/08/17 07:06:14;;;;;;;1.63;1.57;;;21.30;97.30;;;;;;5092130;28;20464;-82
2022/08/17 07:09:07;;;;;;;3.93;2.60;;;21.40;97.30;;;;;;5075859;28;20470;-82
2022/08/17 07:11:56;;;;;;;2.67;1.70;;;21.40;97.30;;;;;;5095228;28;20409;-82
2022/08/17 07:14:34;;;;;;;2.03;1.90;;;21.50;97.30;;;;;;5076305;28;20473;-81
2022/08/17 07:17:09;;;;;;;2.73;2.50;;;21.60;97.30;;;;;;5079973;28;21003;-81
2022/08/17 07:19:40;;;;;;;2.80;2.10;;;21.60;97.30;;;;;;5099335;28;20432;-81
2022/08/17 07:22:20;;;;;;;4.60;3.33;;;21.70;97.30;;;;;;5098259;28;20393;-81
2022/08/17 07:24:46;;;;;;;4.23;2.23;;;21.80;97.30;;;;;;5083034;28;20416;-81
2022/08/17 07:27:30;;;;;;;5.57;3.33;;;22.00;97.30;;;;;;5082083;28;20425;-82
2022/08/17 07:30:07;;;;;;;3.23;1.83;;;22.10;97.30;;;;;;5082493;28;20205;-81
2022/08/17 07:32:53;;;;;;;4.80;2.10;;;22.20;97.30;;;;;;5082444;28;20412;-81
2022/08/17 07:35:28;;;;;;;1.40;1.33;;;22.30;97.30;;;;;;5099092;28;20408;-81
2022/08/17 07:38:13;;;;;;;2.57;2.37;;;22.40;97.30;;;;;;5082028;28;20471;-81
2022/08/17 07:40:56;;;;;;;1.80;1.50;;;22.50;97.30;;;;;;5081849;28;20520;-81
2022/08/17 07:43:25;;;;;;;1.90;1.70;;;22.60;97.30;;;;;;5099788;28;20411;-81
2022/08/17 07:48:47;;;;;;;4.07;2.07;;;22.80;97.30;;;;;;5100240;28;20423;-81
2022/08/17 07:51:19;;;;;;;2.63;2.43;;;22.90;97.30;;;;;;5082278;28;20424;-82
2022/08/17 07:53:44;;;;;;;2.87;2.00;;;23.00;97.30;;;;;;5080142;28;20521;-81
2022/08/17 07:56:29;;;;;;;3.20;2.10;;;23.10;97.30;;;;;;5081011;28;20460;-81
2022/08/17 07:59:25;;;;;;;12.30;2.80;;;23.30;97.30;;;;;;5081572;28;20194;-81
2022/08/17 08:01:57;;;;;;;2.90;2.03;;;23.40;97.30;;;;;;5080050;28;20412;-81
2022/08/17 08:04:29;;;;;;;2.33;1.97;;;23.60;97.10;;;;;;5080568;28;20466;-81
2022/08/17 08:06:58;;;;;;;2.93;2.20;;;23.80;96.50;;;;;;5069193;28;20971;-81
2022/08/17 08:09:34;;;;;;;5.30;2.37;;;23.90;96.20;;;;;;5056778;28;20429;-81
2022/08/17 08:12:20;;;;;;;2.53;2.10;;;23.90;95.60;;;;;;5060962;28;20416;-80
2022/08/17 08:14:55;;;;;;;2.20;2.00;;;24.00;95.40;;;;;;5078293;28;20401;-82
2022/08/17 08:17:34;;;;;;;2.27;1.77;;;24.10;95.40;;;;;;5058696;28;20507;-81
2022/08/17 08:20:07;;;;;;;1.93;1.87;;;24.10;94.40;;;;;;5057462;28;20867;-81
2022/08/17 08:22:45;;;;;;;3.00;2.30;;;24.20;94.60;;;;;;5056290;28;20421;-81
2022/08/17 08:25:35;;;;;;;3.13;2.10;;;24.40;94.90;;;;;;5060673;28;20470;-81
2022/08/17 08:28:27;;;;;;;3.30;1.73;;;24.50;94.60;;;;;;5054159;28;20413;-81
2022/08/17 08:31:24;;;;;;;3.03;1.57;;;24.60;94.60;;;;;;5017105;28;20429;-81
2022/08/17 08:34:02;;;;;;;5.20;2.50;;;24.70;94.50;;;;;;5021044;28;20409;-81
2022/08/17 08:36:38;;;;;;;4.30;2.60;;;24.80;93.50;;;;;;5076095;28;20408;-81
2022/08/17 08:39:46;;;;;;;3.63;2.40;;;24.90;93.40;;;;;;5060499;28;20433;-81
2022/08/17 08:42:28;;;;;;;2.47;1.93;;;25.10;93.00;;;;;;5059218;28;20478;-81
2022/08/17 08:45:04;;;;;;;3.40;2.10;;;25.20;92.50;;;;;;5056470;28;20425;-81
2022/08/17 08:47:48;;;;;;;4.30;1.77;;;25.40;92.60;;;;;;5060081;28;20416;-81
2022/08/17 08:50:36;;;;;;;3.97;2.80;;;25.50;92.20;;;;;;5059985;28;20441;-81
2022/08/17 08:53:47;;;;;;;4.67;1.70;;;25.60;91.60;;;;;;5060484;28;20759;-81
2022/08/17 08:56:26;;;;;;;2.90;2.70;;;25.70;91.00;;;;;;4976838;28;20461;-81
2022/08/17 08:59:23;;;;;;;2.17;2.03;;;25.80;90.70;;;;;;5033209;28;20444;-81
2022/08/17 09:02:05;;;;;;;2.50;1.60;;;25.90;90.40;;;;;;5032765;28;20418;-81
2022/08/17 09:04:45;;;;;;;2.13;1.80;;;26.10;89.50;;;;;;5039541;28;20489;-81
2022/08/17 09:07:29;;;;;;;3.33;1.70;;;26.20;88.80;;;;;;5050963;28;20441;-81
2022/08/17 09:10:17;;;;;;;2.13;1.80;;;26.30;88.70;;;;;;5039589;28;20442;-81
2022/08/17 09:12:54;;;;;;;2.23;1.70;;;26.40;87.90;;;;;;5039544;28;20468;-81
2022/08/17 09:15:26;;;;;;;2.77;1.43;;;26.50;88.40;;;;;;5046542;28;20417;-81
2022/08/17 09:18:14;;;;;;;3.50;2.33;;;26.60;88.90;;;;;;5059713;28;20485;-81
2022/08/17 09:20:57;;;;;;;2.17;1.97;;;26.80;88.50;;;;;;5059361;28;20442;-81
2022/08/17 09:23:40;;;;;;;1.57;1.50;;;26.90;86.90;;;;;;5059519;28;20409;-81
2022/08/17 09:26:13;;;;;;;1.87;1.80;;;27.00;86.60;;;;;;5059423;28;20425;-81
2022/08/17 09:28:45;;;;;;;2.40;1.70;;;27.20;87.70;;;;;;5059113;28;20570;-81
2022/08/17 09:31:16;;;;;;;1.57;1.40;;;27.30;86.10;;;;;;5077693;28;20619;-80
2022/08/17 09:33:45;;;;;;;4.53;2.80;;;27.40;84.60;;;;;;5059525;28;20460;-81
2022/08/17 09:36:20;;;;;;;2.13;1.40;;;27.40;84.20;;;;;;5058973;28;20425;-80
2022/08/17 09:38:46;;;;;;;1.80;1.43;;;27.50;84.70;;;;;;5077209;28;20476;-81
2022/08/17 09:41:18;;;;;;;1.90;1.43;;;27.60;83.80;;;;;;5077537;28;20413;-82
2022/08/17 09:43:53;;;;;;;1.77;1.60;;;27.80;84.40;;;;;;5060160;28;20766;-81
2022/08/17 09:46:22;;;;;;;2.20;2.00;;;28.00;82.90;;;;;;5059203;28;20404;-81
2022/08/17 09:49:31;;;;;;;2.67;1.90;;;28.10;82.70;;;;;;5058990;28;20441;-81
2022/08/17 09:52:02;;;;;;;2.10;1.57;;;28.30;82.70;;;;;;5053080;28;20518;-81
2022/08/17 09:54:31;;;;;;;2.40;1.83;;;28.50;82.10;;;;;;5062918;28;20423;-81
2022/08/17 09:57:12;;;;;;;1.73;1.67;;;28.60;80.40;;;;;;5061569;28;20453;-81
2022/08/17 10:00:07;;;;;;;2.07;1.93;;;28.80;80.80;;;;;;5078926;28;20432;-81
2022/08/17 10:02:52;;;;;;;3.67;2.30;;;28.90;80.30;;;;;;5058055;28;20451;-81
2022/08/17 10:05:36;;;;;;;1.43;1.37;;;29.00;79.00;;;;;;5059931;28;20491;-81
2022/08/17 10:08:11;;;;;;;1.70;1.60;;;29.10;79.80;;;;;;5036760;28;20884;-81
2022/08/17 10:11:07;;;;;;;1.47;1.40;;;29.20;78.80;;;;;;5042787;28;20429;-80
2022/08/17 10:13:53;;;;;;;1.40;1.20;;;29.30;79.80;;;;;;5056653;28;20456;-81
2022/08/17 10:16:42;;;;;;;1.47;1.37;;;29.40;78.70;;;;;;5057807;28;20613;-80
2022/08/17 10:19:23;;;;;;;1.73;1.63;;;29.40;78.10;;;;;;5057433;28;20860;-81
2022/08/17 10:27:50;;;;;;;1.50;1.40;;;29.60;77.90;;;;;;5079976;28;20403;-81
2022/08/17 10:30:20;;;;;;;3.53;1.40;;;29.70;78.10;;;;;;5076111;28;20445;-81
2022/08/17 10:32:55;;;;;;;2.50;1.47;;;29.80;77.10;;;;;;5058220;28;20413;-80
2022/08/17 10:35:40;;;;;;;2.60;1.63;;;29.80;77.90;;;;;;5055647;28;20412;-79
2022/08/17 10:38:44;;;;;;;2.07;1.37;;;29.80;77.90;;;;;;5055726;28;20510;-79
2022/08/17 10:41:40;;;;;;;1.60;1.60;;;29.90;77.70;;;;;;5055833;28;20421;-78
2022/08/17 10:44:30;;;;;;;1.73;1.63;;;30.00;76.00;;;;;;5055633;28;20492;-78
2022/08/17 10:47:13;;;;;;;1.63;1.33;;;29.90;76.30;;;;;;5055450;28;20414;-79
2022/08/17 10:49:52;;;;;;;1.33;1.13;;;30.00;77.50;;;;;;5055573;28;20878;-78
2022/08/17 10:52:28;;;;;;;2.00;1.80;;;30.10;76.90;;;;;;5055258;28;20424;-79
2022/08/17 10:54:55;;;;;;;1.87;1.40;;;30.20;77.00;;;;;;5054995;28;20417;-79
2022/08/17 10:57:32;;;;;;;1.57;1.40;;;30.20;75.90;;;;;;5055012;28;21045;-79
2022/08/17 11:00:32;;;;;;;1.57;1.50;;;30.20;75.60;;;;;;5055610;28;20429;-81
2022/08/17 11:02:58;;;;;;;1.90;1.70;;;30.30;75.80;;;;;;5053722;28;20448;-79
2022/08/17 11:06:12;;;;;;;2.17;1.97;;;30.40;75.80;;;;;;5054899;28;20466;-79
2022/08/17 11:08:59;;;;;;;1.67;1.57;;;30.40;74.70;;;;;;5034833;28;20607;-79
2022/08/17 11:11:49;;;;;;;1.93;1.70;;;30.30;75.10;;;;;;5035163;28;20547;-78
2022/08/17 11:14:23;;;;;;;3.47;2.43;;;30.30;75.40;;;;;;5034943;28;20476;-78
2022/08/17 11:17:16;;;;;;;1.93;1.60;;;30.40;74.80;;;;;;5034969;28;20458;-79
2022/08/17 11:19:44;;;;;;;1.60;1.37;;;30.40;73.10;;;;;;5034614;28;20871;-79
2022/08/17 11:22:48;;;;;;;2.63;1.93;;;30.50;73.10;;;;;;5034567;28;20481;-79
2022/08/17 11:25:17;;;;;;;1.73;1.63;;;30.50;72.80;;;;;;5034681;28;20778;-79
2022/08/17 11:27:52;;;;;;;2.53;2.10;;;30.60;74.70;;;;;;5034810;28;20421;-79
2022/08/17 11:30:46;;;;;;;2.57;1.87;;;30.70;75.20;;;;;;5035084;28;20525;-79
2022/08/17 11:33:27;;;;;;;2.73;2.13;;;30.70;75.00;;;;;;5035670;28;20437;-79
2022/08/17 11:36:02;;;;;;;1.60;1.50;;;30.70;75.40;;;;;;5034850;28;20452;-79
2022/08/17 11:38:45;;;;;;;1.70;1.60;;;30.80;74.70;;;;;;5034622;28;20461;-78
2022/08/17 11:41:26;;;;;;;1.70;1.60;;;30.90;74.30;;;;;;5034931;28;20418;-79
2022/08/17 11:44:19;;;;;;;2.13;1.63;;;30.80;73.50;;;;;;5034844;28;20765;-79
2022/08/17 11:53:44;;;;;;;1.97;1.60;;;30.80;75.30;;;;;;5052515;28;20447;-79
2022/08/17 11:56:27;;;;;;;1.67;1.40;;;31.00;74.20;;;;;;4970541;28;20417;-79
2022/08/17 11:58:53;;;;;;;2.60;1.70;;;31.10;74.40;;;;;;5043320;28;20555;-79
2022/08/17 12:01:22;;;;;;;1.87;1.77;;;31.30;74.80;;;;;;5034202;28;21001;-79
2022/08/17 12:03:55;;;;;;;3.47;1.77;;;31.50;73.90;;;;;;5033482;28;20425;-78
2022/08/17 12:06:45;;;;;;;1.80;1.40;;;31.50;72.00;;;;;;5041552;28;20506;-79
2022/08/17 12:09:23;;;;;;;2.30;1.70;;;31.50;72.80;;;;;;5053576;28;20532;-79
2022/08/17 12:11:55;;;;;;;1.43;1.40;;;31.60;73.80;;;;;;5053689;28;20418;-79
2022/08/17 12:14:25;;;;;;;2.40;1.50;;;31.60;73.30;;;;;;5053128;28;20417;-79
2022/08/17 12:17:10;;;;;;;1.60;1.53;;;31.60;72.70;;;;;;5054254;28;20596;-79
2022/08/17 12:19:38;;;;;;;2.00;1.90;;;31.80;73.20;;;;;;5053521;28;20430;-79
2022/08/17 12:22:21;;;;;;;3.10;1.50;;;31.90;71.20;;;;;;5053777;28;20914;-79
2022/08/17 12:25:07;;;;;;;2.00;1.50;;;31.80;71.10;;;;;;5053845;28;20420;-79
2022/08/17 12:27:35;;;;;;;1.47;1.20;;;31.60;71.20;;;;;;5070339;28;20476;-79
2022/08/17 12:30:08;;;;;;;2.40;2.20;;;31.50;72.50;;;;;;5071557;28;20490;-78
2022/08/17 12:32:35;;;;;;;1.70;1.60;;;31.50;71.90;;;;;;5071432;28;20927;-79
2022/08/17 12:35:03;;;;;;;1.60;1.50;;;31.60;72.30;;;;;;5053100;28;20418;-79
2022/08/17 12:37:31;;;;;;;1.73;1.50;;;31.70;70.80;;;;;;5053143;28;21022;-79
2022/08/17 12:40:07;;;;;;;1.60;1.50;;;31.80;69.10;;;;;;5069678;28;20429;-79
2022/08/17 12:42:38;;;;;;;2.50;1.73;;;31.80;69.00;;;;;;5053329;28;20420;-78
2022/08/17 12:45:25;;;;;;;2.10;1.60;;;32.00;70.40;;;;;;5053305;28;20421;-79
2022/08/17 12:48:09;;;;;;;3.30;1.73;;;32.00;70.50;;;;;;5039116;28;20979;-79
2022/08/17 12:50:43;;;;;;;1.63;1.57;;;32.00;70.70;;;;;;5053180;28;20930;-78
2022/08/17 12:53:14;;;;;;;1.83;1.73;;;32.10;72.20;;;;;;5052895;28;20492;-79
2022/08/17 12:55:41;;;;;;;1.80;1.30;;;32.20;72.20;;;;;;5053024;28;20413;-79
2022/08/17 12:58:11;;;;;;;2.33;2.00;;;32.30;72.90;;;;;;5053080;28;20453;-78
2022/08/17 13:00:41;;;;;;;1.33;1.23;;;32.40;71.90;;;;;;5070784;28;20430;-77
2022/08/17 13:03:14;;;;;;;2.40;1.90;;;32.40;72.30;;;;;;5071146;28;20551;-79
2022/08/17 13:05:56;;;;;;;1.80;1.70;;;32.50;71.90;;;;;;5099504;22;20848;-80
2022/08/17 13:08:34;;;;;;;1.40;1.30;;;32.70;70.80;;;;;;5074828;28;20428;-80
2022/08/17 13:11:23;;;;;;;2.87;1.90;;;32.90;69.70;;;;;;5075976;28;20519;-81
2022/08/17 13:13:53;;;;;;;1.53;1.43;;;33.00;68.40;;;;;;5075825;28;20429;-81
2022/08/17 13:16:29;;;;;;;1.70;1.50;;;33.10;67.70;;;;;;5075276;28;20420;-80
2022/08/17 13:19:05;;;;;;;1.63;1.60;;;33.20;67.10;;;;;;5075138;28;20467;-80
2022/08/17 13:21:33;;;;;;;3.47;1.53;;;33.30;68.10;;;;;;5075627;28;20413;-80
2022/08/17 13:24:28;;;;;;;1.47;1.37;;;33.40;67.90;;;;;;5075048;28;20417;-81
2022/08/17 13:27:06;;;;;;;2.60;1.23;;;33.60;67.70;;;;;;5073140;28;20416;-80
2022/08/17 13:29:55;;;;;;;2.13;1.50;;;33.70;68.70;;;;;;5095212;28;20432;-82
2022/08/17 13:32:34;;;;;;;1.57;1.47;;;33.90;66.90;;;;;;5095963;28;20419;-80
2022/08/17 13:35:21;;;;;;;1.20;1.10;;;33.90;64.40;;;;;;5078191;28;20431;-81
2022/08/17 13:38:11;;;;;;;1.20;1.10;;;33.70;65.90;;;;;;5076782;28;20475;-81
2022/08/17 13:40:42;;;;;;;1.70;1.60;;;33.40;66.10;;;;;;5076667;28;20471;-81
2022/08/17 13:43:08;;;;;;;1.30;1.20;;;33.10;66.60;;;;;;5076885;28;20408;-81
2022/08/17 13:45:42;;;;;;;4.17;1.27;;;32.90;67.10;;;;;;5077960;28;20423;-81
2022/08/17 13:48:08;;;;;;;2.80;1.33;;;32.70;67.30;;;;;;5078143;28;20797;-81
2022/08/17 13:50:53;;;;;;;2.00;1.33;;;32.80;66.20;;;;;;5077130;28;20523;-82
2022/08/17 13:53:30;;;;;;;1.60;1.50;;;33.10;67.70;;;;;;5062737;28;20191;-81
2022/08/17 13:56:07;;;;;;;1.17;1.07;;;33.40;66.20;;;;;;5076819;28;20929;-81